sensor_id;sensor_type;location;lat;lon;timestamp;temperature;humidity
17202;DHT22;8717;53.588;10.176;2023-06-22T00:00:00;16.90;99.90
17202;DHT22;8717;53.588;10.176;2023-06-22T00:02:37;16.80;99.90
17202;DHT22;8717;53.588;10.176;2023-06-22T00:05:05;16.80;99.90
17202;DHT22;8717;53.588;10.176;2023-06-22T00:07:32;16.80;99.90
17202;DHT22;8717;53.588;10.176;2023-06-22T00:09:59;16.80;99.90
17202;DHT22;8717;53.588;10.176;2023-06-22T00:12:27;16.70;99.90
17202;DHT22;8717;53.588;10.176;2023-06-22T00:14:54;16.70;99.90
17202;DHT22;8717;53.588;10.176;2023-06-22T00:17:21;16.70;99.90
17202;DHT22;8717;53.588;10.176;2023-06-22T00:19:48;16.70;99.90
17202;DHT22;8717;53.588;10.176;2023-06-22T00:22:19;16.70;99.90
17202;DHT22;8717;53.588;10.176;2023-06-22T00:24:54;16.70;99.90
17202;DHT22;8717;53.588;10.176;2023-06-22T00:27:21;16.70;99.90
17202;DHT22;8717;53.588;10.176;2023-06-22T00:29:49;16.70;99.90
17202;DHT22;8717;53.588;10.176;2023-06-22T00:32:15;16.60;99.90
17202;DHT22;8717;53.588;10.176;2023-06-22T00:34:43;16.60;99.90
17202;DHT22;8717;53.588;10.176;2023-06-22T00:37:10;16.60;99.90
17202;DHT22;8717;53.588;10.176;2023-06-22T00:39:37;16.60;99.90
17202;DHT22;8717;53.588;10.176;2023-06-22T00:42:05;16.50;99.90
17202;DHT22;8717;53.588;10.176;2023-06-22T00:44:32;16.50;99.90
17202;DHT22;8717;53.588;10.176;2023-06-22T00:47:00;16.50;99.90
17202;DHT22;8717;53.588;10.176;2023-06-22T00:49:27;16.50;99.90
17202;DHT22;8717;53.588;10.176;2023-06-22T00:51:55;16.50;99.90
17202;DHT22;8717;53.588;10.176;2023-06-22T00:54:22;16.40;99.90
17202;DHT22;8717;53.588;10.176;2023-06-22T00:56:50;16.40;99.90
17202;DHT22;8717;53.588;10.176;2023-06-22T00:59:18;16.50;99.90
17202;DHT22;8717;53.588;10.176;2023-06-22T01:01:45;16.50;99.90
17202;DHT22;8717;53.588;10.176;2023-06-22T01:04:13;16.50;99.90
17202;DHT22;8717;53.588;10.176;2023-06-22T01:06:45;16.50;99.90
17202;DHT22;8717;53.588;10.176;2023-06-22T01:09:15;16.60;99.90
17202;DHT22;8717;53.588;10.176;2023-06-22T01:11:50;16.60;99.90
17202;DHT22;8717;53.588;10.176;2023-06-22T01:14:22;16.60;99.90
17202;DHT22;8717;53.588;10.176;2023-06-22T01:16:51;16.60;99.90
17202;DHT22;8717;53.588;10.176;2023-06-22T01:19:37;16.60;99.90
17202;DHT22;8717;53.588;10.176;2023-06-22T01:22:08;16.60;99.90
17202;DHT22;8717;53.588;10.176;2023-06-22T01:24:45;16.60;99.90
17202;DHT22;8717;53.588;10.176;2023-06-22T01:27:26;16.60;99.90
17202;DHT22;8717;53.588;10.176;2023-06-22T01:29:57;16.60;99.90
17202;DHT22;8717;53.588;10.176;2023-06-22T01:32:28;16.60;99.90
17202;DHT22;8717;53.588;10.176;2023-06-22T01:34:59;16.60;99.90
17202;DHT22;8717;53.588;10.176;2023-06-22T01:37:27;16.60;99.90
17202;DHT22;8717;53.588;10.176;2023-06-22T01:39:55;16.60;99.90
17202;DHT22;8717;53.588;10.176;2023-06-22T01:42:24;16.60;99.90
17202;DHT22;8717;53.588;10.176;2023-06-22T01:44:51;16.60;99.90
17202;DHT22;8717;53.588;10.176;2023-06-22T01:47:20;16.50;99.90
17202;DHT22;8717;53.588;10.176;2023-06-22T01:49:47;16.50;99.90
17202;DHT22;8717;53.588;10.176;2023-06-22T01:52:14;16.50;99.90
17202;DHT22;8717;53.588;10.176;2023-06-22T01:54:41;16.50;99.90
17202;DHT22;8717;53.588;10.176;2023-06-22T01:57:08;16.40;99.90
17202;DHT22;8717;53.588;10.176;2023-06-22T01:59:39;16.40;99.90
17202;DHT22;8717;53.588;10.176;2023-06-22T02:02:12;16.40;99.90
17202;DHT22;8717;53.588;10.176;2023-06-22T02:04:46;16.40;99.90
17202;DHT22;8717;53.588;10.176;2023-06-22T02:07:17;16.40;99.90
17202;DHT22;8717;53.588;10.176;2023-06-22T02:09:46;16.30;99.90
17202;DHT22;8717;53.588;10.176;2023-06-22T02:12:18;16.30;99.90
17202;DHT22;8717;53.588;10.176;2023-06-22T02:14:45;16.30;99.90
17202;DHT22;8717;53.588;10.176;2023-06-22T02:17:13;16.30;99.90
17202;DHT22;8717;53.588;10.176;2023-06-22T02:19:42;16.30;99.90
17202;DHT22;8717;53.588;10.176;2023-06-22T02:22:09;16.20;99.90
17202;DHT22;8717;53.588;10.176;2023-06-22T02:24:37;16.20;99.90
17202;DHT22;8717;53.588;10.176;2023-06-22T02:27:04;16.20;99.90
17202;DHT22;8717;53.588;10.176;2023-06-22T02:29:33;16.20;99.90
17202;DHT22;8717;53.588;10.176;2023-06-22T02:32:02;16.10;99.90
17202;DHT22;8717;53.588;10.176;2023-06-22T02:34:29;16.10;99.90
17202;DHT22;8717;53.588;10.176;2023-06-22T02:36:57;16.10;99.90
17202;DHT22;8717;53.588;10.176;2023-06-22T02:39:28;16.00;99.90
17202;DHT22;8717;53.588;10.176;2023-06-22T02:41:55;16.00;99.90
17202;DHT22;8717;53.588;10.176;2023-06-22T02:44:22;16.00;99.90
17202;DHT22;8717;53.588;10.176;2023-06-22T02:46:49;15.90;99.90
17202;DHT22;8717;53.588;10.176;2023-06-22T02:49:17;15.90;99.90
17202;DHT22;8717;53.588;10.176;2023-06-22T02:51:48;15.90;99.90
17202;DHT22;8717;53.588;10.176;2023-06-22T02:54:19;15.80;99.90
17202;DHT22;8717;53.588;10.176;2023-06-22T02:56:48;15.90;99.90
17202;DHT22;8717;53.588;10.176;2023-06-22T02:59:17;15.80;99.90
17202;DHT22;8717;53.588;10.176;2023-06-22T03:01:47;15.80;99.90
17202;DHT22;8717;53.588;10.176;2023-06-22T03:04:19;15.80;99.90
17202;DHT22;8717;53.588;10.176;2023-06-22T03:06:46;15.70;99.90
17202;DHT22;8717;53.588;10.176;2023-06-22T03:09:17;15.70;99.90
17202;DHT22;8717;53.588;10.176;2023-06-22T03:11:45;15.60;99.90
17202;DHT22;8717;53.588;10.176;2023-06-22T03:14:12;15.60;99.90
17202;DHT22;8717;53.588;10.176;2023-06-22T03:16:39;15.60;99.90
17202;DHT22;8717;53.588;10.176;2023-06-22T03:19:10;15.60;99.90
17202;DHT22;8717;53.588;10.176;2023-06-22T03:21:37;15.60;99.90
17202;DHT22;8717;53.588;10.176;2023-06-22T03:24:05;15.60;99.90
17202;DHT22;8717;53.588;10.176;2023-06-22T03:26:33;15.50;99.90
17202;DHT22;8717;53.588;10.176;2023-06-22T03:29:01;15.50;99.90
17202;DHT22;8717;53.588;10.176;2023-06-22T03:31:29;15.50;99.90
17202;DHT22;8717;53.588;10.176;2023-06-22T03:33:57;15.50;99.90
17202;DHT22;8717;53.588;10.176;2023-06-22T03:36:24;15.50;99.90
17202;DHT22;8717;53.588;10.176;2023-06-22T03:38:51;15.60;99.90
17202;DHT22;8717;53.588;10.176;2023-06-22T03:41:18;15.50;99.90
17202;DHT22;8717;53.588;10.176;2023-06-22T03:43:46;15.50;99.90
17202;DHT22;8717;53.588;10.176;2023-06-22T03:46:16;15.60;99.90
17202;DHT22;8717;53.588;10.176;2023-06-22T03:48:43;15.60;99.90
17202;DHT22;8717;53.588;10.176;2023-06-22T03:51:10;15.60;99.90
17202;DHT22;8717;53.588;10.176;2023-06-22T03:53:37;15.60;99.90
17202;DHT22;8717;53.588;10.176;2023-06-22T03:56:04;15.70;99.90
17202;DHT22;8717;53.588;10.176;2023-06-22T03:58:31;15.80;99.90
17202;DHT22;8717;53.588;10.176;2023-06-22T04:00:58;15.80;99.90
17202;DHT22;8717;53.588;10.176;2023-06-22T04:03:27;16.00;99.90
17202;DHT22;8717;53.588;10.176;2023-06-22T04:05:54;16.00;99.90
17202;DHT22;8717;53.588;10.176;2023-06-22T04:08:21;16.10;99.90
17202;DHT22;8717;53.588;10.176;2023-06-22T04:10:48;16.20;99.90
17202;DHT22;8717;53.588;10.176;2023-06-22T04:13:15;16.30;99.90
17202;DHT22;8717;53.588;10.176;2023-06-22T04:15:42;16.40;99.90
17202;DHT22;8717;53.588;10.176;2023-06-22T04:18:08;16.50;99.90
17202;DHT22;8717;53.588;10.176;2023-06-22T04:20:37;16.60;99.90
17202;DHT22;8717;53.588;10.176;2023-06-22T04:23:03;16.60;99.90
17202;DHT22;8717;53.588;10.176;2023-06-22T04:25:30;16.70;99.90
17202;DHT22;8717;53.588;10.176;2023-06-22T04:27:57;16.70;99.90
17202;DHT22;8717;53.588;10.176;2023-06-22T04:30:24;16.80;99.90
17202;DHT22;8717;53.588;10.176;2023-06-22T04:32:51;16.80;99.90
17202;DHT22;8717;53.588;10.176;2023-06-22T04:35:23;16.90;99.90
17202;DHT22;8717;53.588;10.176;2023-06-22T04:37:53;17.00;99.90
17202;DHT22;8717;53.588;10.176;2023-06-22T04:40:21;17.00;99.90
17202;DHT22;8717;53.588;10.176;2023-06-22T04:42:47;17.10;99.90
17202;DHT22;8717;53.588;10.176;2023-06-22T04:45:19;17.20;99.90
17202;DHT22;8717;53.588;10.176;2023-06-22T04:47:46;17.30;99.90
17202;DHT22;8717;53.588;10.176;2023-06-22T04:50:13;17.40;99.90
17202;DHT22;8717;53.588;10.176;2023-06-22T04:52:40;17.50;99.90
17202;DHT22;8717;53.588;10.176;2023-06-22T04:55:08;17.50;99.90
17202;DHT22;8717;53.588;10.176;2023-06-22T04:57:35;17.60;99.90
17202;DHT22;8717;53.588;10.176;2023-06-22T05:00:06;17.70;99.90
17202;DHT22;8717;53.588;10.176;2023-06-22T05:02:38;17.70;99.90
17202;DHT22;8717;53.588;10.176;2023-06-22T05:05:06;17.80;99.90
17202;DHT22;8717;53.588;10.176;2023-06-22T05:07:33;17.90;99.90
17202;DHT22;8717;53.588;10.176;2023-06-22T05:10:00;18.00;99.90
17202;DHT22;8717;53.588;10.176;2023-06-22T05:12:29;18.00;99.90
17202;DHT22;8717;53.588;10.176;2023-06-22T05:14:59;18.10;99.90
17202;DHT22;8717;53.588;10.176;2023-06-22T05:17:27;18.30;99.90
17202;DHT22;8717;53.588;10.176;2023-06-22T05:19:54;18.30;99.90
17202;DHT22;8717;53.588;10.176;2023-06-22T05:22:21;18.40;99.90
17202;DHT22;8717;53.588;10.176;2023-06-22T05:24:48;18.50;99.90
17202;DHT22;8717;53.588;10.176;2023-06-22T05:27:15;18.50;99.90
17202;DHT22;8717;53.588;10.176;2023-06-22T05:29:43;18.60;99.90
17202;DHT22;8717;53.588;10.176;2023-06-22T05:32:10;18.70;99.90
17202;DHT22;8717;53.588;10.176;2023-06-22T05:34:37;18.80;99.90
17202;DHT22;8717;53.588;10.176;2023-06-22T05:37:05;18.90;99.90
17202;DHT22;8717;53.588;10.176;2023-06-22T05:39:32;19.00;99.90
17202;DHT22;8717;53.588;10.176;2023-06-22T05:41:58;19.10;99.90
17202;DHT22;8717;53.588;10.176;2023-06-22T05:44:25;19.20;99.90
17202;DHT22;8717;53.588;10.176;2023-06-22T05:46:54;19.30;99.90
17202;DHT22;8717;53.588;10.176;2023-06-22T05:49:20;19.40;99.90
17202;DHT22;8717;53.588;10.176;2023-06-22T05:51:48;19.60;99.90
17202;DHT22;8717;53.588;10.176;2023-06-22T05:54:14;19.70;99.90
17202;DHT22;8717;53.588;10.176;2023-06-22T05:56:43;19.90;99.90
17202;DHT22;8717;53.588;10.176;2023-06-22T05:59:10;20.00;99.90
17202;DHT22;8717;53.588;10.176;2023-06-22T06:01:37;20.10;99.90
17202;DHT22;8717;53.588;10.176;2023-06-22T06:04:06;20.20;99.90
17202;DHT22;8717;53.588;10.176;2023-06-22T06:06:34;20.30;99.90
17202;DHT22;8717;53.588;10.176;2023-06-22T06:09:03;20.50;99.90
17202;DHT22;8717;53.588;10.176;2023-06-22T06:11:30;20.60;99.90
17202;DHT22;8717;53.588;10.176;2023-06-22T06:13:56;20.70;99.90
17202;DHT22;8717;53.588;10.176;2023-06-22T06:16:23;20.80;99.90
17202;DHT22;8717;53.588;10.176;2023-06-22T06:18:50;21.00;99.90
17202;DHT22;8717;53.588;10.176;2023-06-22T06:21:20;21.10;99.90
17202;DHT22;8717;53.588;10.176;2023-06-22T06:23:47;21.30;99.90
17202;DHT22;8717;53.588;10.176;2023-06-22T06:26:14;21.40;99.90
17202;DHT22;8717;53.588;10.176;2023-06-22T06:28:42;21.50;99.90
17202;DHT22;8717;53.588;10.176;2023-06-22T06:31:08;21.60;99.90
17202;DHT22;8717;53.588;10.176;2023-06-22T06:33:37;21.80;99.90
17202;DHT22;8717;53.588;10.176;2023-06-22T06:36:04;21.90;99.90
17202;DHT22;8717;53.588;10.176;2023-06-22T06:38:35;22.10;99.90
17202;DHT22;8717;53.588;10.176;2023-06-22T06:41:03;22.30;99.90
17202;DHT22;8717;53.588;10.176;2023-06-22T06:43:30;22.40;99.90
17202;DHT22;8717;53.588;10.176;2023-06-22T06:45:56;22.70;99.90
17202;DHT22;8717;53.588;10.176;2023-06-22T06:48:23;22.80;99.90
17202;DHT22;8717;53.588;10.176;2023-06-22T06:50:50;23.00;99.90
17202;DHT22;8717;53.588;10.176;2023-06-22T06:53:16;23.30;99.90
17202;DHT22;8717;53.588;10.176;2023-06-22T06:55:44;23.50;99.50
17202;DHT22;8717;53.588;10.176;2023-06-22T06:58:11;23.70;99.00
17202;DHT22;8717;53.588;10.176;2023-06-22T07:00:38;23.80;98.90
17202;DHT22;8717;53.588;10.176;2023-06-22T07:03:05;23.90;98.80
17202;DHT22;8717;53.588;10.176;2023-06-22T07:05:32;24.10;98.90
17202;DHT22;8717;53.588;10.176;2023-06-22T07:07:59;24.30;98.50
17202;DHT22;8717;53.588;10.176;2023-06-22T07:10:26;24.50;97.90
17202;DHT22;8717;53.588;10.176;2023-06-22T07:12:54;24.70;97.60
17202;DHT22;8717;53.588;10.176;2023-06-22T07:15:20;24.80;97.00
17202;DHT22;8717;53.588;10.176;2023-06-22T07:17:47;24.90;97.10
17202;DHT22;8717;53.588;10.176;2023-06-22T07:20:14;25.00;97.10
17202;DHT22;8717;53.588;10.176;2023-06-22T07:22:42;25.10;96.90
17202;DHT22;8717;53.588;10.176;2023-06-22T07:25:10;25.20;96.70
17202;DHT22;8717;53.588;10.176;2023-06-22T07:27:43;25.40;96.60
17202;DHT22;8717;53.588;10.176;2023-06-22T07:30:12;25.70;96.40
17202;DHT22;8717;53.588;10.176;2023-06-22T07:32:39;26.00;96.00
17202;DHT22;8717;53.588;10.176;2023-06-22T07:35:07;26.30;95.80
17202;DHT22;8717;53.588;10.176;2023-06-22T07:37:34;26.60;94.80
17202;DHT22;8717;53.588;10.176;2023-06-22T07:40:00;26.80;94.20
17202;DHT22;8717;53.588;10.176;2023-06-22T07:42:29;27.00;94.00
17202;DHT22;8717;53.588;10.176;2023-06-22T07:44:58;27.10;93.70
17202;DHT22;8717;53.588;10.176;2023-06-22T07:47:26;27.20;93.60
17202;DHT22;8717;53.588;10.176;2023-06-22T07:49:56;27.30;93.50
17202;DHT22;8717;53.588;10.176;2023-06-22T07:52:23;27.40;93.00
17202;DHT22;8717;53.588;10.176;2023-06-22T07:54:51;27.60;92.10
17202;DHT22;8717;53.588;10.176;2023-06-22T07:57:17;27.80;92.10
17202;DHT22;8717;53.588;10.176;2023-06-22T07:59:44;28.00;91.50
17202;DHT22;8717;53.588;10.176;2023-06-22T08:02:11;28.00;91.10
17202;DHT22;8717;53.588;10.176;2023-06-22T08:04:39;28.20;90.80
17202;DHT22;8717;53.588;10.176;2023-06-22T08:07:07;28.30;90.40
17202;DHT22;8717;53.588;10.176;2023-06-22T08:09:33;28.50;90.20
17202;DHT22;8717;53.588;10.176;2023-06-22T08:12:01;28.60;88.90
17202;DHT22;8717;53.588;10.176;2023-06-22T08:14:29;28.80;88.20
17202;DHT22;8717;53.588;10.176;2023-06-22T08:16:56;28.90;87.90
17202;DHT22;8717;53.588;10.176;2023-06-22T08:19:22;29.00;88.00
17202;DHT22;8717;53.588;10.176;2023-06-22T08:21:51;29.00;86.70
17202;DHT22;8717;53.588;10.176;2023-06-22T08:24:17;29.20;85.10
17202;DHT22;8717;53.588;10.176;2023-06-22T08:26:44;29.30;84.60
17202;DHT22;8717;53.588;10.176;2023-06-22T08:29:11;29.50;84.60
17202;DHT22;8717;53.588;10.176;2023-06-22T08:31:37;29.90;83.40
17202;DHT22;8717;53.588;10.176;2023-06-22T08:34:04;30.30;82.50
17202;DHT22;8717;53.588;10.176;2023-06-22T08:36:31;30.60;81.20
17202;DHT22;8717;53.588;10.176;2023-06-22T08:38:59;30.90;79.40
17202;DHT22;8717;53.588;10.176;2023-06-22T08:41:29;31.20;77.70
17202;DHT22;8717;53.588;10.176;2023-06-22T08:43:56;31.50;77.40
17202;DHT22;8717;53.588;10.176;2023-06-22T08:46:23;31.70;75.70
17202;DHT22;8717;53.588;10.176;2023-06-22T08:48:55;32.10;76.40
17202;DHT22;8717;53.588;10.176;2023-06-22T08:51:23;32.50;75.10
17202;DHT22;8717;53.588;10.176;2023-06-22T08:53:53;32.80;71.40
17202;DHT22;8717;53.588;10.176;2023-06-22T08:56:21;33.20;71.80
17202;DHT22;8717;53.588;10.176;2023-06-22T08:58:47;33.40;69.70
17202;DHT22;8717;53.588;10.176;2023-06-22T09:01:14;33.70;69.20
17202;DHT22;8717;53.588;10.176;2023-06-22T09:03:41;34.00;68.40
17202;DHT22;8717;53.588;10.176;2023-06-22T09:06:08;34.30;65.50
17202;DHT22;8717;53.588;10.176;2023-06-22T09:08:35;34.60;65.20
17202;DHT22;8717;53.588;10.176;2023-06-22T09:11:02;34.80;65.00
17202;DHT22;8717;53.588;10.176;2023-06-22T09:13:31;35.10;64.00
17202;DHT22;8717;53.588;10.176;2023-06-22T09:15:57;35.40;61.90
17202;DHT22;8717;53.588;10.176;2023-06-22T09:18:24;35.60;61.50
17202;DHT22;8717;53.588;10.176;2023-06-22T09:20:50;35.80;60.40
17202;DHT22;8717;53.588;10.176;2023-06-22T09:23:17;36.00;60.20
17202;DHT22;8717;53.588;10.176;2023-06-22T09:25:44;36.20;58.70
17202;DHT22;8717;53.588;10.176;2023-06-22T09:28:12;36.30;58.00
17202;DHT22;8717;53.588;10.176;2023-06-22T09:30:42;36.30;57.10
17202;DHT22;8717;53.588;10.176;2023-06-22T09:33:09;36.10;56.40
17202;DHT22;8717;53.588;10.176;2023-06-22T09:35:35;36.00;56.90
17202;DHT22;8717;53.588;10.176;2023-06-22T09:38:02;35.80;56.50
17202;DHT22;8717;53.588;10.176;2023-06-22T09:40:29;35.80;57.10
17202;DHT22;8717;53.588;10.176;2023-06-22T09:42:58;35.90;57.10
17202;DHT22;8717;53.588;10.176;2023-06-22T09:45:24;35.90;56.10
17202;DHT22;8717;53.588;10.176;2023-06-22T09:47:52;35.90;55.80
17202;DHT22;8717;53.588;10.176;2023-06-22T09:50:19;35.90;55.90
17202;DHT22;8717;53.588;10.176;2023-06-22T09:52:46;36.00;56.30
17202;DHT22;8717;53.588;10.176;2023-06-22T09:55:20;36.20;55.80
17202;DHT22;8717;53.588;10.176;2023-06-22T09:57:46;36.50;55.10
17202;DHT22;8717;53.588;10.176;2023-06-22T10:00:14;36.80;55.10
17202;DHT22;8717;53.588;10.176;2023-06-22T10:02:42;37.00;55.20
17202;DHT22;8717;53.588;10.176;2023-06-22T10:05:10;37.20;53.30
17202;DHT22;8717;53.588;10.176;2023-06-22T10:07:36;37.20;52.50
17202;DHT22;8717;53.588;10.176;2023-06-22T10:10:08;37.20;52.60
17202;DHT22;8717;53.588;10.176;2023-06-22T10:12:35;37.10;52.40
17202;DHT22;8717;53.588;10.176;2023-06-22T10:15:02;37.00;52.80
17202;DHT22;8717;53.588;10.176;2023-06-22T10:17:29;37.00;52.70
17202;DHT22;8717;53.588;10.176;2023-06-22T10:19:55;37.10;53.00
17202;DHT22;8717;53.588;10.176;2023-06-22T10:22:23;37.10;52.30
17202;DHT22;8717;53.588;10.176;2023-06-22T10:24:50;37.20;51.90
17202;DHT22;8717;53.588;10.176;2023-06-22T10:27:16;37.30;51.40
17202;DHT22;8717;53.588;10.176;2023-06-22T10:29:44;37.30;51.10
17202;DHT22;8717;53.588;10.176;2023-06-22T10:32:10;37.20;50.90
17202;DHT22;8717;53.588;10.176;2023-06-22T10:34:37;37.10;50.80
17202;DHT22;8717;53.588;10.176;2023-06-22T10:37:04;37.00;51.20
17202;DHT22;8717;53.588;10.176;2023-06-22T10:39:32;37.00;51.70
17202;DHT22;8717;53.588;10.176;2023-06-22T10:41:59;37.00;51.00
17202;DHT22;8717;53.588;10.176;2023-06-22T10:44:26;37.20;51.60
17202;DHT22;8717;53.588;10.176;2023-06-22T10:46:52;37.30;51.50
17202;DHT22;8717;53.588;10.176;2023-06-22T10:49:19;37.50;51.00
17202;DHT22;8717;53.588;10.176;2023-06-22T10:51:46;37.60;50.70
17202;DHT22;8717;53.588;10.176;2023-06-22T10:54:12;37.70;50.70
17202;DHT22;8717;53.588;10.176;2023-06-22T10:56:41;37.80;50.30
17202;DHT22;8717;53.588;10.176;2023-06-22T10:59:07;37.80;49.80
17202;DHT22;8717;53.588;10.176;2023-06-22T11:01:34;37.70;49.60
17202;DHT22;8717;53.588;10.176;2023-06-22T11:04:03;37.60;49.80
17202;DHT22;8717;53.588;10.176;2023-06-22T11:06:29;37.60;49.50
17202;DHT22;8717;53.588;10.176;2023-06-22T11:08:56;37.50;49.30
17202;DHT22;8717;53.588;10.176;2023-06-22T11:11:23;37.30;49.50
17202;DHT22;8717;53.588;10.176;2023-06-22T11:13:52;37.10;49.50
17202;DHT22;8717;53.588;10.176;2023-06-22T11:16:19;36.90;49.70
17202;DHT22;8717;53.588;10.176;2023-06-22T11:18:46;36.80;50.50
17202;DHT22;8717;53.588;10.176;2023-06-22T11:21:12;36.70;50.10
17202;DHT22;8717;53.588;10.176;2023-06-22T11:23:39;36.80;50.50
17202;DHT22;8717;53.588;10.176;2023-06-22T11:26:06;36.80;51.00
17202;DHT22;8717;53.588;10.176;2023-06-22T11:28:32;36.90;50.50
17202;DHT22;8717;53.588;10.176;2023-06-22T11:31:00;37.10;49.60
17202;DHT22;8717;53.588;10.176;2023-06-22T11:33:27;37.00;49.90
17202;DHT22;8717;53.588;10.176;2023-06-22T11:35:54;36.90;49.50
17202;DHT22;8717;53.588;10.176;2023-06-22T11:38:22;36.70;49.80
17202;DHT22;8717;53.588;10.176;2023-06-22T11:40:48;36.50;49.60
17202;DHT22;8717;53.588;10.176;2023-06-22T11:43:15;36.30;49.70
17202;DHT22;8717;53.588;10.176;2023-06-22T11:45:41;36.00;49.60
17202;DHT22;8717;53.588;10.176;2023-06-22T11:48:09;35.70;50.20
17202;DHT22;8717;53.588;10.176;2023-06-22T11:50:37;35.50;50.80
17202;DHT22;8717;53.588;10.176;2023-06-22T11:53:04;35.20;50.70
17202;DHT22;8717;53.588;10.176;2023-06-22T11:55:31;34.90;50.60
17202;DHT22;8717;53.588;10.176;2023-06-22T11:57:58;34.60;51.80
17202;DHT22;8717;53.588;10.176;2023-06-22T12:00:27;34.30;52.20
17202;DHT22;8717;53.588;10.176;2023-06-22T12:02:55;34.20;52.20
17202;DHT22;8717;53.588;10.176;2023-06-22T12:05:23;34.10;52.30
17202;DHT22;8717;53.588;10.176;2023-06-22T12:07:53;34.00;52.40
17202;DHT22;8717;53.588;10.176;2023-06-22T12:10:20;34.00;53.30
17202;DHT22;8717;53.588;10.176;2023-06-22T12:12:47;34.00;52.60
17202;DHT22;8717;53.588;10.176;2023-06-22T12:15:13;33.90;52.20
17202;DHT22;8717;53.588;10.176;2023-06-22T12:17:40;33.80;53.10
17202;DHT22;8717;53.588;10.176;2023-06-22T12:20:08;33.80;53.30
17202;DHT22;8717;53.588;10.176;2023-06-22T12:22:36;33.80;52.90
17202;DHT22;8717;53.588;10.176;2023-06-22T12:25:04;33.70;53.10
17202;DHT22;8717;53.588;10.176;2023-06-22T12:27:33;33.60;53.00
17202;DHT22;8717;53.588;10.176;2023-06-22T12:30:00;33.60;53.80
17202;DHT22;8717;53.588;10.176;2023-06-22T12:32:27;33.60;54.10
17202;DHT22;8717;53.588;10.176;2023-06-22T12:34:53;33.60;53.70
17202;DHT22;8717;53.588;10.176;2023-06-22T12:37:21;33.70;53.30
17202;DHT22;8717;53.588;10.176;2023-06-22T12:39:49;33.60;53.30
17202;DHT22;8717;53.588;10.176;2023-06-22T12:42:16;33.50;54.00
17202;DHT22;8717;53.588;10.176;2023-06-22T12:44:43;33.40;53.70
17202;DHT22;8717;53.588;10.176;2023-06-22T12:47:10;33.30;54.00
17202;DHT22;8717;53.588;10.176;2023-06-22T12:49:36;33.30;54.40
17202;DHT22;8717;53.588;10.176;2023-06-22T12:52:08;33.30;54.70
17202;DHT22;8717;53.588;10.176;2023-06-22T12:54:35;33.40;54.80
17202;DHT22;8717;53.588;10.176;2023-06-22T12:57:03;33.50;54.50
17202;DHT22;8717;53.588;10.176;2023-06-22T12:59:30;33.50;53.90
17202;DHT22;8717;53.588;10.176;2023-06-22T13:01:57;33.50;54.20
17202;DHT22;8717;53.588;10.176;2023-06-22T13:04:23;33.40;54.50
17202;DHT22;8717;53.588;10.176;2023-06-22T13:06:50;33.50;55.10
17202;DHT22;8717;53.588;10.176;2023-06-22T13:09:18;33.60;54.70
17202;DHT22;8717;53.588;10.176;2023-06-22T13:11:45;33.70;54.50
17202;DHT22;8717;53.588;10.176;2023-06-22T13:14:16;33.80;54.80
17202;DHT22;8717;53.588;10.176;2023-06-22T13:16:42;33.90;54.20
17202;DHT22;8717;53.588;10.176;2023-06-22T13:19:09;33.90;53.80
17202;DHT22;8717;53.588;10.176;2023-06-22T13:21:36;33.90;53.80
17202;DHT22;8717;53.588;10.176;2023-06-22T13:24:03;33.80;54.50
17202;DHT22;8717;53.588;10.176;2023-06-22T13:26:31;33.70;54.10
17202;DHT22;8717;53.588;10.176;2023-06-22T13:28:59;33.60;54.60
17202;DHT22;8717;53.588;10.176;2023-06-22T13:31:27;33.60;54.50
17202;DHT22;8717;53.588;10.176;2023-06-22T13:33:53;33.50;54.60
17202;DHT22;8717;53.588;10.176;2023-06-22T13:36:20;33.40;54.90
17202;DHT22;8717;53.588;10.176;2023-06-22T13:38:48;33.30;55.00
17202;DHT22;8717;53.588;10.176;2023-06-22T13:41:15;33.40;55.70
17202;DHT22;8717;53.588;10.176;2023-06-22T13:43:42;33.40;55.40
17202;DHT22;8717;53.588;10.176;2023-06-22T13:46:08;33.40;54.90
17202;DHT22;8717;53.588;10.176;2023-06-22T13:48:36;33.40;55.00
17202;DHT22;8717;53.588;10.176;2023-06-22T13:51:03;33.40;55.30
17202;DHT22;8717;53.588;10.176;2023-06-22T13:53:30;33.50;55.40
17202;DHT22;8717;53.588;10.176;2023-06-22T13:55:56;33.40;54.90
17202;DHT22;8717;53.588;10.176;2023-06-22T13:58:23;33.30;55.20
17202;DHT22;8717;53.588;10.176;2023-06-22T14:00:50;33.10;55.20
17202;DHT22;8717;53.588;10.176;2023-06-22T14:03:16;33.00;55.70
17202;DHT22;8717;53.588;10.176;2023-06-22T14:05:44;32.90;55.70
17202;DHT22;8717;53.588;10.176;2023-06-22T14:08:12;32.80;55.90
17202;DHT22;8717;53.588;10.176;2023-06-22T14:10:40;32.70;55.30
17202;DHT22;8717;53.588;10.176;2023-06-22T14:13:06;32.50;55.30
17202;DHT22;8717;53.588;10.176;2023-06-22T14:15:33;32.30;55.50
17202;DHT22;8717;53.588;10.176;2023-06-22T14:18:00;32.10;56.10
17202;DHT22;8717;53.588;10.176;2023-06-22T14:20:26;31.90;56.20
17202;DHT22;8717;53.588;10.176;2023-06-22T14:22:54;31.80;56.60
17202;DHT22;8717;53.588;10.176;2023-06-22T14:25:21;31.70;56.90
17202;DHT22;8717;53.588;10.176;2023-06-22T14:27:48;31.60;56.60
17202;DHT22;8717;53.588;10.176;2023-06-22T14:30:15;31.50;56.60
17202;DHT22;8717;53.588;10.176;2023-06-22T14:32:43;31.50;57.10
17202;DHT22;8717;53.588;10.176;2023-06-22T14:35:10;31.30;57.20
17202;DHT22;8717;53.588;10.176;2023-06-22T14:37:37;31.20;57.30
17202;DHT22;8717;53.588;10.176;2023-06-22T14:40:06;31.10;57.70
17202;DHT22;8717;53.588;10.176;2023-06-22T14:42:33;30.90;65.30
17202;DHT22;8717;53.588;10.176;2023-06-22T14:45:00;30.80;69.40
17202;DHT22;8717;53.588;10.176;2023-06-22T14:47:26;30.60;71.50
17202;DHT22;8717;53.588;10.176;2023-06-22T14:49:54;30.40;66.40
17202;DHT22;8717;53.588;10.176;2023-06-22T14:52:20;30.10;71.50
17202;DHT22;8717;53.588;10.176;2023-06-22T14:54:47;29.80;70.40
17202;DHT22;8717;53.588;10.176;2023-06-22T14:57:15;29.40;69.10
17202;DHT22;8717;53.588;10.176;2023-06-22T14:59:45;29.10;70.70
17202;DHT22;8717;53.588;10.176;2023-06-22T15:02:12;28.80;72.40
17202;DHT22;8717;53.588;10.176;2023-06-22T15:04:38;28.50;71.50
17202;DHT22;8717;53.588;10.176;2023-06-22T15:07:05;28.30;71.20
17202;DHT22;8717;53.588;10.176;2023-06-22T15:09:32;28.10;73.20
17202;DHT22;8717;53.588;10.176;2023-06-22T15:11:59;27.90;73.20
17202;DHT22;8717;53.588;10.176;2023-06-22T15:14:28;27.90;74.70
17202;DHT22;8717;53.588;10.176;2023-06-22T15:16:55;27.70;74.80
17202;DHT22;8717;53.588;10.176;2023-06-22T15:19:22;27.60;74.00
17202;DHT22;8717;53.588;10.176;2023-06-22T15:21:48;27.50;74.40
17202;DHT22;8717;53.588;10.176;2023-06-22T15:24:15;27.40;73.90
17202;DHT22;8717;53.588;10.176;2023-06-22T15:26:42;27.40;74.00
17202;DHT22;8717;53.588;10.176;2023-06-22T15:29:08;27.30;73.90
17202;DHT22;8717;53.588;10.176;2023-06-22T15:31:36;27.30;74.20